Aérodrome :
LOGIN :

S'inscrire | Disclaimer

   EN    FR    IT 

 










Légende :    VFR   VFR Marginal   IFR   IFR Intensif   IFR Très Intensif
Visi : 
Plafond : 
>= 8 km
>= 3000ft
5 à 8 km
1000 à 3000 ft
1500m à 5 km
500 à 1000 ft
800 à 1500m
200 à 500 ft
< 800m
< 200 ft
Symboles :   Orages  Brouillard  Fortes neiges  Fortes précipitations  Vent > 20 kt
SIGMETs :   Divers  Orages  Givrage  Turbulence  Onde Orograph.  Cendres Volcan.






- Altitude de l'aérodrome : 485 ft
- Code IATA : QSA


LELL - Sabadell

DERNIER METAR :
  • 230130Z AUTO 30006KT 260V350 9999 VCTS -SHRA ///CB 16/15 Q1004 RERA

METARs EXPIRÉS :
  • 230100Z AUTO 30004KT 260V020 9999 VCTS -SHRA ///CB 16/15 Q1005 RERA
  • 230030Z AUTO 31009KT 280V340 8000 RA FEW030 BKN047 BKN058 16/15 Q1005
  • 230000Z AUTO 32015G25KT 290V350 6000 +RA VV015 15/14 Q1005
  • 222300Z AUTO 32014KT 290V010 9999 VCTS -SHRA FEW050/// ///CB 16/15 Q1006 RETSRATSRATSRA

TAF TAF LELL
Valide du 22 à 15h jusqu'au 23 à 15h UTC


221400Z 2215/2315 05012KT 9999 BKN025 TX20/2313Z TN11/2306Z
TEMPO 2215/2304 VRB15G30KT 2000 TSRA SCT025CB BKN030
BECMG 2221/2224 VRB04KT
BECMG 2308/2311 22008KT



MET'MAP, la Météo Aéronautique d'un coup d'oeil ! - Copyright ORBIFLY Décembre 2007 - Disclaimer

ORBIFLY MET'MAP TEAM :

Programmation & Développement : Alexandra Zaïnal
Conception & Développement : Baudouin d'Aumeries
Co-Programmation & Développement : Marc-Olivier Méhu
Soutien technique & logistique : Manuel Goepfert

Contact : metmap@orbifly.com




SOURCES & CREDITS :

   NOAA